createdAt,value
2022-11-21T00:00:54.961Z,0.00
2022-11-21T00:01:55.021Z,0.00
2022-11-21T00:02:54.970Z,0.00
2022-11-21T00:03:54.943Z,0.00
2022-11-21T00:04:54.963Z,0.00
2022-11-21T00:05:54.936Z,0.00
2022-11-21T00:06:54.897Z,0.00
2022-11-21T00:07:54.901Z,0.00
2022-11-21T00:08:54.876Z,0.00
2022-11-21T00:09:54.903Z,0.00
2022-11-21T00:10:54.861Z,0.00
2022-11-21T00:11:54.833Z,0.00
2022-11-21T00:12:54.820Z,0.00
2022-11-21T00:13:54.812Z,0.00
2022-11-21T00:14:54.836Z,0.00
2022-11-21T00:15:54.793Z,0.00
2022-11-21T00:16:57.508Z,0.00
2022-11-21T00:17:54.780Z,0.00
2022-11-21T00:18:54.752Z,0.00
2022-11-21T00:19:54.781Z,0.00
2022-11-21T00:20:54.737Z,0.00
2022-11-21T00:21:54.739Z,0.00
2022-11-21T00:22:54.720Z,0.00
2022-11-21T00:23:54.720Z,0.00
2022-11-21T00:24:54.740Z,0.00
2022-11-21T00:25:54.701Z,0.00
2022-11-21T00:26:54.673Z,0.00
2022-11-21T00:27:54.656Z,0.00
2022-11-21T00:28:54.655Z,0.00
2022-11-21T00:29:54.688Z,0.00
2022-11-21T00:30:54.632Z,0.00
2022-11-21T00:31:54.619Z,0.00
2022-11-21T00:32:54.608Z,0.00
2022-11-21T00:33:54.592Z,0.00
2022-11-21T00:34:54.610Z,0.00
2022-11-21T00:35:54.579Z,0.00
2022-11-21T00:36:54.543Z,0.00
2022-11-21T00:37:54.556Z,0.00
2022-11-21T00:38:54.541Z,0.00
2022-11-21T00:39:54.549Z,0.00
2022-11-21T00:40:54.517Z,0.00
2022-11-21T00:41:54.502Z,0.00
2022-11-21T00:42:54.496Z,0.00
2022-11-21T00:43:54.508Z,0.00
2022-11-21T00:44:54.525Z,0.00
2022-11-21T00:45:54.455Z,0.00
2022-11-21T00:46:54.463Z,0.00
2022-11-21T00:47:54.463Z,0.00
2022-11-21T00:48:54.413Z,0.00
2022-11-21T00:49:54.448Z,0.00
2022-11-21T00:50:54.387Z,0.00
2022-11-21T00:51:54.385Z,0.00
2022-11-21T00:52:54.384Z,0.00
2022-11-21T00:53:54.376Z,0.00
2022-11-21T00:54:54.399Z,0.00
2022-11-21T00:55:54.369Z,0.00
2022-11-21T00:56:54.344Z,0.00
2022-11-21T00:57:54.338Z,0.00
2022-11-21T00:58:54.325Z,0.00
2022-11-21T00:59:54.339Z,0.00
2022-11-21T01:00:54.339Z,0.00
2022-11-21T01:01:54.315Z,0.00
2022-11-21T01:02:54.277Z,0.00
2022-11-21T01:03:54.257Z,0.00
2022-11-21T01:04:54.276Z,0.00
2022-11-21T01:05:54.241Z,0.00
2022-11-21T01:06:54.250Z,0.00
2022-11-21T01:07:54.229Z,0.00
2022-11-21T01:08:54.213Z,0.00
2022-11-21T01:09:54.266Z,0.00
2022-11-21T01:10:54.180Z,0.00
2022-11-21T01:11:54.181Z,0.00
2022-11-21T01:12:54.154Z,0.00
2022-11-21T01:13:54.171Z,0.00
2022-11-21T01:14:54.192Z,0.00
2022-11-21T01:15:54.144Z,0.00
2022-11-21T01:16:54.118Z,0.00
2022-11-21T01:17:54.121Z,0.00
2022-11-21T01:18:54.086Z,0.00
2022-11-21T01:19:54.128Z,0.00
2022-11-21T01:20:54.070Z,0.00
2022-11-21T01:21:54.063Z,0.00
2022-11-21T01:22:54.050Z,0.00
2022-11-21T01:23:54.054Z,0.00
2022-11-21T01:24:54.045Z,0.00
2022-11-21T01:25:54.001Z,0.00
2022-11-21T01:26:53.998Z,0.00
2022-11-21T01:27:53.985Z,0.00
2022-11-21T01:28:53.981Z,0.00
2022-11-21T01:29:54.034Z,0.00
2022-11-21T01:30:53.959Z,0.00
2022-11-21T01:31:53.959Z,0.00
2022-11-21T01:32:53.938Z,0.00
2022-11-21T01:33:53.964Z,0.00
2022-11-21T01:34:53.957Z,0.00
2022-11-21T01:35:53.896Z,0.00
2022-11-21T01:36:53.899Z,0.00
2022-11-21T01:37:53.897Z,0.00
2022-11-21T01:38:53.884Z,0.00
2022-11-21T01:39:53.898Z,0.00
2022-11-21T01:40:53.854Z,0.00
2022-11-21T01:41:53.841Z,0.00
2022-11-21T01:42:53.811Z,0.00
2022-11-21T01:43:53.817Z,0.00
2022-11-21T01:44:53.818Z,0.00
2022-11-21T01:45:53.850Z,0.00
2022-11-21T01:46:53.775Z,0.00
2022-11-21T01:47:53.785Z,0.00
2022-11-21T01:48:53.753Z,0.00
2022-11-21T01:49:53.756Z,0.00
2022-11-21T01:50:53.785Z,0.00
2022-11-21T01:51:53.741Z,0.00
2022-11-21T01:52:53.716Z,0.00
2022-11-21T01:53:53.717Z,0.00
2022-11-21T01:54:53.702Z,0.00
2022-11-21T01:55:53.720Z,0.00
2022-11-21T01:56:53.677Z,0.00
2022-11-21T01:57:53.670Z,0.00
2022-11-21T01:58:53.664Z,0.00
2022-11-21T01:59:53.645Z,0.00
2022-11-21T02:00:53.679Z,0.00
2022-11-21T02:01:53.608Z,0.00
2022-11-21T02:02:53.597Z,0.00
2022-11-21T02:03:53.586Z,0.00
2022-11-21T02:04:53.594Z,0.00
2022-11-21T02:05:53.618Z,0.00
2022-11-21T02:06:53.573Z,0.00
2022-11-21T02:07:53.556Z,0.00
2022-11-21T02:08:53.547Z,0.00
2022-11-21T02:09:53.541Z,0.00
2022-11-21T02:10:53.557Z,0.00
2022-11-21T02:11:53.524Z,0.00
2022-11-21T02:12:53.491Z,0.00
2022-11-21T02:13:53.486Z,0.00
2022-11-21T02:14:53.476Z,0.00
2022-11-21T02:15:53.504Z,0.00
2022-11-21T02:16:53.436Z,0.00
2022-11-21T02:17:53.436Z,0.00
2022-11-21T02:18:53.434Z,0.00
2022-11-21T02:19:53.454Z,0.00
2022-11-21T02:20:53.447Z,0.00
2022-11-21T02:21:53.398Z,0.00
2022-11-21T02:22:53.399Z,0.00
2022-11-21T02:23:57.659Z,0.00
2022-11-21T02:24:54.357Z,0.00
2022-11-21T02:25:53.382Z,0.00
2022-11-21T02:26:53.326Z,0.00
2022-11-21T02:27:53.329Z,0.00
2022-11-21T02:28:53.314Z,0.00
2022-11-21T02:29:53.322Z,0.00
2022-11-21T02:30:53.345Z,0.00
2022-11-21T02:31:53.305Z,0.00
2022-11-21T02:32:53.272Z,0.00
2022-11-21T02:33:53.264Z,0.00
2022-11-21T02:34:53.264Z,0.00
2022-11-21T02:35:53.302Z,0.00
2022-11-21T02:36:53.221Z,0.00
2022-11-21T02:37:53.219Z,0.00
2022-11-21T02:38:53.196Z,0.00
2022-11-21T02:39:53.184Z,0.00
2022-11-21T02:40:53.214Z,0.00
2022-11-21T02:41:53.180Z,0.00
2022-11-21T02:42:53.174Z,0.00
2022-11-21T02:43:53.164Z,0.00
2022-11-21T02:44:53.131Z,0.00
2022-11-21T02:45:53.181Z,0.00
2022-11-21T02:46:53.110Z,0.00
2022-11-21T02:47:53.113Z,0.00
2022-11-21T02:48:53.087Z,0.00
2022-11-21T02:49:53.099Z,0.00
2022-11-21T02:50:53.107Z,0.00
2022-11-21T02:51:53.079Z,0.00
2022-11-21T02:52:53.031Z,0.00
2022-11-21T02:53:53.045Z,0.00
2022-11-21T02:54:53.038Z,0.00
2022-11-21T02:55:53.099Z,0.00
2022-11-21T02:56:53.014Z,0.00
2022-11-21T02:57:52.993Z,0.00
2022-11-21T02:58:53.012Z,0.00
2022-11-21T02:59:52.982Z,0.00
2022-11-21T03:00:53.038Z,0.00
2022-11-21T03:01:52.957Z,0.00
2022-11-21T03:02:52.970Z,0.00
2022-11-21T03:03:52.937Z,0.00
2022-11-21T03:04:52.923Z,0.00
2022-11-21T03:05:52.921Z,0.00
2022-11-21T03:06:52.946Z,0.00
2022-11-21T03:07:52.906Z,0.00
2022-11-21T03:08:52.894Z,0.00
2022-11-21T03:09:52.875Z,0.00
2022-11-21T03:10:52.862Z,0.00
2022-11-21T03:11:52.868Z,0.00
2022-11-21T03:12:52.856Z,0.00
2022-11-21T03:13:52.811Z,0.00
2022-11-21T03:14:52.811Z,0.00
2022-11-21T03:15:53.518Z,0.00
2022-11-21T03:16:52.832Z,0.00
2022-11-21T03:17:52.772Z,0.00
2022-11-21T03:18:52.779Z,0.00
2022-11-21T03:19:52.748Z,0.00
2022-11-21T03:20:52.761Z,0.00
2022-11-21T03:21:52.785Z,0.00
2022-11-21T03:22:52.728Z,0.00
2022-11-21T03:23:52.717Z,0.00
2022-11-21T03:24:52.701Z,0.00
2022-11-21T03:25:52.692Z,0.00
2022-11-21T03:26:52.721Z,0.00
2022-11-21T03:27:52.673Z,0.00
2022-11-21T03:28:52.664Z,0.00
2022-11-21T03:29:52.650Z,0.00
2022-11-21T03:30:52.648Z,0.00
2022-11-21T03:31:52.650Z,0.00
2022-11-21T03:32:52.617Z,0.00
2022-11-21T03:33:52.594Z,0.00
2022-11-21T03:34:52.591Z,0.00
2022-11-21T03:35:52.573Z,0.00
2022-11-21T03:36:52.590Z,0.00
2022-11-21T03:37:52.543Z,0.00
2022-11-21T03:38:52.559Z,0.00
2022-11-21T03:39:52.539Z,0.00
2022-11-21T03:40:52.540Z,0.00
2022-11-21T03:41:52.599Z,0.00
2022-11-21T03:42:52.506Z,0.00
2022-11-21T03:43:52.491Z,0.00
2022-11-21T03:44:52.476Z,0.00
2022-11-21T03:45:52.475Z,0.00
2022-11-21T03:46:52.496Z,0.00
2022-11-21T03:47:52.451Z,0.00
2022-11-21T03:48:52.444Z,0.00
2022-11-21T03:49:52.423Z,0.00
2022-11-21T03:50:52.402Z,0.00
2022-11-21T03:51:52.422Z,0.00
2022-11-21T03:52:52.383Z,0.00
2022-11-21T03:53:52.366Z,0.00
2022-11-21T03:54:52.381Z,0.00
2022-11-21T03:55:52.352Z,0.00
2022-11-21T03:56:52.381Z,0.00
2022-11-21T03:57:52.330Z,0.00
2022-11-21T03:58:52.317Z,0.00
2022-11-21T03:59:52.318Z,0.00
2022-11-21T04:00:52.323Z,0.00
2022-11-21T04:01:52.359Z,0.00
2022-11-21T04:02:52.271Z,0.00
2022-11-21T04:03:52.271Z,0.00
2022-11-21T04:04:52.274Z,0.00
2022-11-21T04:05:52.251Z,0.00
2022-11-21T04:06:52.291Z,0.00
2022-11-21T04:07:52.228Z,0.00
2022-11-21T04:08:52.221Z,0.00
2022-11-21T04:09:52.183Z,0.00
2022-11-21T04:10:52.212Z,0.00
2022-11-21T04:11:52.218Z,0.00
2022-11-21T04:12:52.181Z,0.00
2022-11-21T04:13:52.150Z,0.00
2022-11-21T04:14:52.161Z,0.00
2022-11-21T04:15:52.136Z,0.00
2022-11-21T04:16:52.159Z,0.00
2022-11-21T04:17:52.113Z,0.00
2022-11-21T04:18:52.121Z,0.00
2022-11-21T04:19:52.088Z,0.00
2022-11-21T04:20:52.091Z,0.00
2022-11-21T04:21:52.106Z,0.00
2022-11-21T04:22:52.065Z,0.00
2022-11-21T04:23:52.053Z,0.00
2022-11-21T04:24:52.038Z,0.00
2022-11-21T04:25:52.023Z,0.00
2022-11-21T04:26:52.053Z,0.00
2022-11-21T04:27:52.033Z,0.00
2022-11-21T04:28:51.990Z,0.00
2022-11-21T04:29:51.988Z,0.00
2022-11-21T04:30:54.839Z,0.00
2022-11-21T04:31:51.993Z,0.00
2022-11-21T04:32:51.966Z,0.00
2022-11-21T04:33:51.946Z,0.00
2022-11-21T04:34:51.942Z,0.00
2022-11-21T04:35:51.913Z,0.00
2022-11-21T04:36:51.971Z,0.00
2022-11-21T04:37:51.904Z,0.00
2022-11-21T04:38:51.921Z,0.00
2022-11-21T04:39:51.866Z,0.00
2022-11-21T04:40:51.874Z,0.00
2022-11-21T04:41:51.895Z,0.00
2022-11-21T04:42:51.863Z,0.00
2022-11-21T04:43:51.835Z,0.00
2022-11-21T04:44:51.847Z,0.00
2022-11-21T04:45:51.826Z,0.00
2022-11-21T04:46:51.839Z,0.00
2022-11-21T04:47:51.794Z,0.00
2022-11-21T04:48:51.783Z,0.00
2022-11-21T04:49:51.774Z,0.00
2022-11-21T04:50:51.774Z,0.00
2022-11-21T04:51:51.772Z,0.00
2022-11-21T04:52:51.727Z,0.00
2022-11-21T04:53:51.732Z,0.00
2022-11-21T04:54:51.724Z,0.00
2022-11-21T04:55:51.706Z,0.00
2022-11-21T04:56:51.751Z,0.00
2022-11-21T04:57:51.666Z,0.00
2022-11-21T04:58:51.672Z,0.00
2022-11-21T04:59:51.656Z,0.00
2022-11-21T05:00:51.691Z,0.00
2022-11-21T05:01:51.633Z,0.00
2022-11-21T05:02:51.657Z,0.00
2022-11-21T05:03:51.598Z,0.00
2022-11-21T05:04:51.586Z,0.00
2022-11-21T05:05:51.585Z,0.00
2022-11-21T05:06:51.600Z,0.00
2022-11-21T05:07:51.614Z,0.00
2022-11-21T05:08:53.589Z,0.00
2022-11-21T05:09:51.548Z,0.00
2022-11-21T05:10:51.535Z,0.00
2022-11-21T05:11:51.535Z,0.00
2022-11-21T05:12:51.587Z,0.00
2022-11-21T05:13:51.504Z,0.00
2022-11-21T05:14:51.500Z,0.00
2022-11-21T05:15:51.506Z,0.00
2022-11-21T05:16:51.478Z,0.00
2022-11-21T05:17:51.496Z,0.00
2022-11-21T05:18:51.460Z,0.00
2022-11-21T05:19:51.453Z,0.00
2022-11-21T05:20:51.460Z,0.00
2022-11-21T05:21:51.419Z,0.00
2022-11-21T05:22:51.443Z,0.00
2022-11-21T05:23:51.406Z,0.00
2022-11-21T05:24:51.408Z,0.00
2022-11-21T05:25:51.380Z,0.00
2022-11-21T05:26:51.380Z,0.00
2022-11-21T05:27:51.401Z,0.00
2022-11-21T05:28:51.371Z,0.00
2022-11-21T05:29:51.334Z,0.00
2022-11-21T05:30:51.357Z,0.00
2022-11-21T05:31:51.333Z,0.00
2022-11-21T05:32:51.335Z,0.00
2022-11-21T05:33:51.302Z,0.00
2022-11-21T05:34:51.286Z,0.00
2022-11-21T05:35:51.264Z,0.00
2022-11-21T05:36:51.251Z,0.00
2022-11-21T05:37:51.270Z,0.00
2022-11-21T05:38:51.228Z,0.00
2022-11-21T05:39:51.201Z,0.00
2022-11-21T05:40:51.206Z,0.00
2022-11-21T05:41:51.217Z,0.00
2022-11-21T05:42:51.254Z,0.00
2022-11-21T05:43:51.172Z,0.00
2022-11-21T05:44:51.180Z,0.00
2022-11-21T05:45:51.165Z,0.00
2022-11-21T05:46:51.153Z,0.00
2022-11-21T05:47:51.178Z,0.00
2022-11-21T05:48:51.137Z,0.00
2022-11-21T05:49:51.106Z,0.00
2022-11-21T05:50:51.117Z,0.00
2022-11-21T05:51:51.101Z,0.00
2022-11-21T05:52:51.092Z,0.00
2022-11-21T05:53:51.120Z,0.00
2022-11-21T05:54:51.057Z,0.00
2022-11-21T05:55:51.054Z,0.00
2022-11-21T05:56:51.029Z,0.00
2022-11-21T05:57:51.053Z,0.00
2022-11-21T05:58:51.060Z,0.00
2022-11-21T05:59:50.985Z,0.00
2022-11-21T06:00:54.445Z,0.00
2022-11-21T06:01:51.977Z,0.00
2022-11-21T06:02:51.095Z,4.00
2022-11-21T06:03:50.993Z,4.00
2022-11-21T06:04:50.954Z,0.00
2022-11-21T06:05:50.948Z,4.00
2022-11-21T06:06:50.932Z,4.00
2022-11-21T06:07:50.934Z,4.00
2022-11-21T06:08:50.944Z,4.00
2022-11-21T06:09:50.891Z,8.00
2022-11-21T06:10:50.900Z,8.00
2022-11-21T06:11:50.863Z,12.00
2022-11-21T06:12:50.876Z,12.00
2022-11-21T06:13:50.872Z,16.00
2022-11-21T06:14:50.843Z,20.00
2022-11-21T06:15:50.857Z,16.00
2022-11-21T06:16:50.831Z,24.00
2022-11-21T06:17:50.815Z,28.00
2022-11-21T06:18:55.129Z,28.00
2022-11-21T06:19:51.773Z,28.00
2022-11-21T06:20:50.777Z,32.00
2022-11-21T06:21:50.774Z,40.00
2022-11-21T06:22:50.767Z,44.00
2022-11-21T06:23:50.780Z,44.00
2022-11-21T06:24:50.741Z,44.00
2022-11-21T06:25:50.737Z,52.00
2022-11-21T06:26:50.732Z,60.00
2022-11-21T06:27:50.691Z,60.00
2022-11-21T06:28:50.722Z,60.00
2022-11-21T06:29:50.680Z,68.00
2022-11-21T06:30:50.680Z,76.00
2022-11-21T06:31:50.650Z,84.00
2022-11-21T06:32:50.700Z,92.00
2022-11-21T06:33:50.691Z,100.00
2022-11-21T06:34:50.647Z,112.00
2022-11-21T06:35:50.611Z,120.00
2022-11-21T06:36:50.605Z,128.00
2022-11-21T06:37:53.485Z,140.00
2022-11-21T06:38:50.581Z,148.00
2022-11-21T06:39:50.617Z,148.00
2022-11-21T06:40:50.557Z,160.00
2022-11-21T06:41:50.561Z,164.00
2022-11-21T06:42:50.539Z,164.00
2022-11-21T06:43:50.525Z,172.00
2022-11-21T06:44:50.559Z,172.00
2022-11-21T06:45:50.520Z,176.00
2022-11-21T06:46:51.681Z,180.00
2022-11-21T06:47:50.485Z,180.00
2022-11-21T06:48:50.470Z,180.00
2022-11-21T06:49:50.495Z,188.00
2022-11-21T06:50:50.445Z,188.00
2022-11-21T06:51:50.429Z,200.00
2022-11-21T06:52:50.419Z,212.00
2022-11-21T06:53:50.413Z,220.00
2022-11-21T06:54:50.445Z,216.00
2022-11-21T06:55:50.395Z,220.00
2022-11-21T06:56:50.409Z,232.00
2022-11-21T06:57:50.378Z,240.00
2022-11-21T06:58:50.382Z,260.00
2022-11-21T06:59:50.394Z,280.00
2022-11-21T07:00:50.453Z,300.00
2022-11-21T07:01:50.378Z,328.00
2022-11-21T07:02:50.313Z,352.00
2022-11-21T07:03:50.312Z,360.00
2022-11-21T07:04:50.346Z,368.00
2022-11-21T07:05:50.293Z,400.00
2022-11-21T07:06:50.276Z,424.00
2022-11-21T07:07:50.272Z,464.00
2022-11-21T07:09:05.014Z,476.00
2022-11-21T07:09:51.423Z,480.00
2022-11-21T07:11:17.748Z,472.00
2022-11-21T07:11:51.200Z,456.00
2022-11-21T07:12:50.202Z,448.00
2022-11-21T07:13:50.209Z,456.00
2022-11-21T07:14:50.221Z,472.00
2022-11-21T07:15:50.182Z,476.00
2022-11-21T07:16:50.169Z,500.00
2022-11-21T07:17:50.166Z,540.00
2022-11-21T07:18:50.155Z,600.00
2022-11-21T07:19:50.212Z,660.00
2022-11-21T07:20:50.126Z,732.00
2022-11-21T07:21:50.114Z,800.00
2022-11-21T07:22:50.109Z,848.00
2022-11-21T07:23:50.107Z,876.00
2022-11-21T07:24:50.118Z,900.00
2022-11-21T07:25:50.081Z,932.00
2022-11-21T07:26:50.047Z,932.00
2022-11-21T07:27:50.055Z,920.00
2022-11-21T07:28:50.047Z,916.00
2022-11-21T07:29:50.053Z,912.00
2022-11-21T07:30:50.007Z,936.00
2022-11-21T07:31:50.024Z,984.00
2022-11-21T07:32:49.987Z,976.00
2022-11-21T07:33:50.000Z,988.00
2022-11-21T07:34:49.989Z,1028.00
2022-11-21T07:35:50.020Z,1048.00
2022-11-21T07:36:49.956Z,1084.00
2022-11-21T07:37:49.938Z,1116.00
2022-11-21T07:38:49.923Z,1128.00
2022-11-21T07:39:49.918Z,1144.00
2022-11-21T07:40:49.924Z,1148.00
2022-11-21T07:41:49.907Z,1108.00
2022-11-21T07:42:49.902Z,1012.00
2022-11-21T07:43:49.868Z,928.00
2022-11-21T07:44:49.873Z,868.00
2022-11-21T07:45:49.904Z,832.00
2022-11-21T07:46:49.857Z,812.00
2022-11-21T07:47:49.850Z,808.00
2022-11-21T07:48:49.825Z,812.00
2022-11-21T07:49:49.824Z,840.00
2022-11-21T07:50:49.831Z,940.00
2022-11-21T07:51:49.794Z,1076.00
2022-11-21T07:52:49.782Z,1248.00
2022-11-21T07:53:49.761Z,1432.00
2022-11-21T07:54:49.768Z,1464.00
2022-11-21T07:55:49.781Z,1404.00
2022-11-21T07:56:49.729Z,1388.00
2022-11-21T07:57:49.747Z,1376.00
2022-11-21T07:58:49.725Z,1448.00
2022-11-21T07:59:49.697Z,1536.00
2022-11-21T08:00:49.724Z,1544.00
2022-11-21T08:01:49.715Z,1496.00
2022-11-21T08:02:49.656Z,1456.00
2022-11-21T08:03:49.657Z,1444.00
2022-11-21T08:04:49.635Z,1548.00
2022-11-21T08:05:49.705Z,1772.00
2022-11-21T08:06:49.641Z,1940.00
2022-11-21T08:07:49.611Z,2000.00
2022-11-21T08:08:50.551Z,1996.00
2022-11-21T08:09:49.591Z,1976.00
2022-11-21T08:10:49.612Z,2028.00
2022-11-21T08:11:49.590Z,2064.00
2022-11-21T08:12:49.550Z,2032.00
2022-11-21T08:13:49.555Z,2128.00
2022-11-21T08:14:49.517Z,2284.00
2022-11-21T08:15:49.560Z,2408.00
2022-11-21T08:16:49.508Z,2296.00
2022-11-21T08:17:49.506Z,2268.00
2022-11-21T08:18:49.504Z,1992.00
2022-11-21T08:19:49.479Z,1772.00
2022-11-21T08:20:49.499Z,1784.00
2022-11-21T08:21:49.460Z,1764.00
2022-11-21T08:22:49.454Z,1664.00
2022-11-21T08:23:49.439Z,1596.00
2022-11-21T08:24:49.465Z,1648.00
2022-11-21T08:25:49.464Z,1784.00
2022-11-21T08:26:49.418Z,1828.00
2022-11-21T08:27:49.405Z,1840.00
2022-11-21T08:28:49.379Z,1960.00
2022-11-21T08:29:49.407Z,1984.00
2022-11-21T08:30:49.380Z,2056.00
2022-11-21T08:31:49.358Z,2180.00
2022-11-21T08:32:49.338Z,2304.00
2022-11-21T08:33:49.340Z,2544.00
2022-11-21T08:34:49.314Z,2792.00
2022-11-21T08:35:49.333Z,3116.00
2022-11-21T08:36:49.298Z,3712.00
2022-11-21T08:37:49.302Z,4348.00
2022-11-21T08:38:49.254Z,4440.00
2022-11-21T08:39:49.267Z,3976.00
2022-11-21T08:40:49.267Z,3632.00
2022-11-21T08:41:49.251Z,3548.00
2022-11-21T08:42:49.229Z,3612.00
2022-11-21T08:43:49.224Z,3740.00
2022-11-21T08:44:49.231Z,3928.00
2022-11-21T08:45:49.234Z,3956.00
2022-11-21T08:46:49.201Z,3732.00
2022-11-21T08:47:49.182Z,3508.00
2022-11-21T08:48:49.157Z,3420.00
2022-11-21T08:49:49.157Z,3568.00
2022-11-21T08:50:49.171Z,3616.00
2022-11-21T08:51:49.174Z,3468.00
2022-11-21T08:52:49.105Z,3504.00
2022-11-21T08:53:49.117Z,3772.00
2022-11-21T08:54:49.107Z,3944.00
2022-11-21T08:55:49.130Z,4028.00
2022-11-21T08:56:49.064Z,4024.00
2022-11-21T08:57:49.061Z,4116.00
2022-11-21T08:58:49.074Z,3892.00
2022-11-21T08:59:49.042Z,3740.00
2022-11-21T09:00:49.062Z,3892.00
2022-11-21T09:01:49.069Z,4032.00
2022-11-21T09:02:49.034Z,3984.00
2022-11-21T09:03:49.021Z,3968.00
2022-11-21T09:04:48.976Z,3944.00
2022-11-21T09:05:49.003Z,4052.00
2022-11-21T09:06:48.968Z,4136.00
2022-11-21T09:07:49.038Z,4292.00
2022-11-21T09:08:48.944Z,4616.00
2022-11-21T09:09:48.937Z,4732.00
2022-11-21T09:10:48.956Z,4744.00
2022-11-21T09:11:48.919Z,5036.00
2022-11-21T09:12:48.895Z,4756.00
2022-11-21T09:13:48.879Z,4280.00
2022-11-21T09:14:49.523Z,3940.00
2022-11-21T09:15:48.887Z,3484.00
2022-11-21T09:16:48.837Z,3284.00
2022-11-21T09:17:48.824Z,3292.00
2022-11-21T09:18:48.831Z,3476.00
2022-11-21T09:19:48.814Z,4104.00
2022-11-21T09:20:48.902Z,4792.00
2022-11-21T09:21:48.799Z,5712.00
2022-11-21T09:22:48.780Z,5668.00
2022-11-21T09:23:48.772Z,5548.00
2022-11-21T09:24:48.758Z,6020.00
2022-11-21T09:25:48.785Z,5736.00
2022-11-21T09:26:48.829Z,5552.00
2022-11-21T09:27:48.725Z,5384.00
2022-11-21T09:28:48.723Z,5200.00
2022-11-21T09:29:53.870Z,5692.00
2022-11-21T09:30:49.748Z,6044.00
2022-11-21T09:31:48.695Z,5804.00
2022-11-21T09:32:48.671Z,5904.00
2022-11-21T09:33:53.595Z,6252.00
2022-11-21T09:34:49.672Z,6340.00
2022-11-21T09:35:48.674Z,6152.00
2022-11-21T09:36:48.643Z,5916.00
2022-11-21T09:37:48.628Z,5716.00
2022-11-21T09:38:48.600Z,4976.00
2022-11-21T09:39:49.072Z,4792.00
2022-11-21T09:40:48.598Z,5620.00
2022-11-21T09:41:48.606Z,6188.00
2022-11-21T09:42:48.562Z,5480.00
2022-11-21T09:43:53.045Z,5252.00
2022-11-21T09:44:49.558Z,5788.00
2022-11-21T09:45:48.537Z,7972.00
2022-11-21T09:46:48.548Z,9776.00
2022-11-21T09:47:48.503Z,10396.00
2022-11-21T09:48:48.489Z,12452.00
2022-11-21T09:49:48.483Z,12860.00
2022-11-21T09:50:53.564Z,14504.00
2022-11-21T09:51:49.508Z,14756.00
2022-11-21T09:52:48.427Z,13412.00
2022-11-21T09:53:49.652Z,11744.00
2022-11-21T09:54:48.415Z,11140.00
2022-11-21T09:55:48.416Z,11088.00
2022-11-21T09:56:48.449Z,8688.00
2022-11-21T09:57:48.420Z,7288.00
2022-11-21T09:58:48.401Z,7212.00
2022-11-21T09:59:48.370Z,7092.00
2022-11-21T10:00:48.379Z,7236.00
2022-11-21T10:01:48.383Z,7156.00
2022-11-21T10:02:48.343Z,6864.00
2022-11-21T10:03:48.325Z,6684.00
2022-11-21T10:04:48.330Z,7276.00
2022-11-21T10:05:48.303Z,7952.00
2022-11-21T10:06:48.329Z,8168.00
2022-11-21T10:07:48.316Z,8080.00
2022-11-21T10:08:48.267Z,7720.00
2022-11-21T10:09:48.349Z,7720.00
2022-11-21T10:10:48.238Z,7708.00
2022-11-21T10:11:48.255Z,7552.00
2022-11-21T10:12:48.222Z,7612.00
2022-11-21T10:13:48.197Z,7516.00
2022-11-21T10:14:48.257Z,7428.00
2022-11-21T10:15:48.190Z,8008.00
2022-11-21T10:16:48.205Z,8328.00
2022-11-21T10:17:48.279Z,8876.00
2022-11-21T10:18:49.529Z,9492.00
2022-11-21T10:19:48.151Z,10956.00
2022-11-21T10:20:48.113Z,11976.00
2022-11-21T10:21:48.156Z,12572.00
2022-11-21T10:22:48.134Z,13552.00
2022-11-21T10:23:48.111Z,13656.00
2022-11-21T10:24:48.074Z,14612.00
2022-11-21T10:25:48.088Z,14464.00
2022-11-21T10:26:48.065Z,12780.00
2022-11-21T10:27:48.037Z,12704.00
2022-11-21T10:28:48.019Z,11880.00
2022-11-21T10:29:48.016Z,11584.00
2022-11-21T10:30:48.033Z,10700.00
2022-11-21T10:31:48.042Z,9380.00
2022-11-21T10:32:47.997Z,8228.00
2022-11-21T10:33:47.988Z,7740.00
2022-11-21T10:34:47.946Z,7956.00
2022-11-21T10:35:47.956Z,8640.00
2022-11-21T10:36:47.986Z,9324.00
2022-11-21T10:37:47.924Z,9732.00
2022-11-21T10:38:47.914Z,9968.00
2022-11-21T10:39:47.920Z,10176.00
2022-11-21T10:40:47.893Z,10308.00
2022-11-21T10:41:47.929Z,10616.00
2022-11-21T10:42:48.626Z,11112.00
2022-11-21T10:43:47.887Z,11484.00
2022-11-21T10:44:47.860Z,12144.00
2022-11-21T10:45:47.844Z,12664.00
2022-11-21T10:46:47.861Z,12456.00
2022-11-21T10:47:47.812Z,11724.00
2022-11-21T10:48:47.819Z,11232.00
2022-11-21T10:49:47.801Z,11276.00
2022-11-21T10:50:47.798Z,11284.00
2022-11-21T10:51:47.852Z,11648.00
2022-11-21T10:52:48.114Z,12024.00
2022-11-21T10:53:47.759Z,12316.00
2022-11-21T10:54:47.748Z,12780.00
2022-11-21T10:55:47.739Z,13412.00
2022-11-21T10:56:47.712Z,13724.00
2022-11-21T10:57:47.744Z,13264.00
2022-11-21T10:58:48.168Z,13456.00
2022-11-21T10:59:47.690Z,13996.00
2022-11-21T11:00:47.716Z,14000.00
2022-11-21T11:01:48.060Z,13472.00
2022-11-21T11:02:47.683Z,12900.00
2022-11-21T11:04:06.949Z,13432.00
2022-11-21T11:04:52.191Z,13604.00
2022-11-21T11:05:47.631Z,14032.00
2022-11-21T11:06:47.620Z,14324.00
2022-11-21T11:07:47.683Z,14980.00
2022-11-21T11:08:47.623Z,14700.00
2022-11-21T11:09:47.601Z,15360.00
2022-11-21T11:10:47.554Z,16520.00
2022-11-21T11:11:48.150Z,17536.00
2022-11-21T11:12:47.576Z,16368.00
2022-11-21T11:13:49.414Z,15372.00
2022-11-21T11:14:47.525Z,15344.00
2022-11-21T11:15:47.531Z,15888.00
2022-11-21T11:16:47.494Z,15988.00
2022-11-21T11:17:48.097Z,16324.00
2022-11-21T11:18:47.480Z,15792.00
2022-11-21T11:19:47.955Z,14840.00
2022-11-21T11:20:47.470Z,14392.00
2022-11-21T11:21:47.436Z,14004.00
2022-11-21T11:22:48.083Z,14012.00
2022-11-21T11:23:47.444Z,14468.00
2022-11-21T11:24:47.416Z,14976.00
2022-11-21T11:25:47.900Z,15024.00
2022-11-21T11:26:48.645Z,15080.00
2022-11-21T11:27:47.415Z,15848.00
2022-11-21T11:28:47.916Z,16284.00
2022-11-21T11:29:47.350Z,15496.00
2022-11-21T11:30:47.346Z,15600.00
2022-11-21T11:31:47.339Z,15708.00
2022-11-21T11:32:48.072Z,16556.00
2022-11-21T11:33:47.293Z,16672.00
2022-11-21T11:34:47.320Z,16152.00
2022-11-21T11:35:47.281Z,15760.00
2022-11-21T11:36:47.320Z,15452.00
2022-11-21T11:37:47.267Z,15604.00
2022-11-21T11:38:47.353Z,15056.00
2022-11-21T11:39:48.119Z,15284.00
2022-11-21T11:40:47.216Z,16796.00
2022-11-21T11:41:47.302Z,19296.00
2022-11-21T11:42:47.295Z,18496.00
2022-11-21T11:43:47.295Z,16940.00
2022-11-21T11:44:47.194Z,17728.00
2022-11-21T11:45:47.173Z,15588.00
2022-11-21T11:46:47.236Z,14644.00
2022-11-21T11:47:54.131Z,14288.00
2022-11-21T11:49:17.546Z,16440.00
2022-11-21T11:49:48.118Z,22400.00
2022-11-21T11:50:47.124Z,29088.00
2022-11-21T11:51:47.101Z,28320.00
2022-11-21T11:52:47.134Z,20448.00
2022-11-21T11:53:47.228Z,18336.00
2022-11-21T11:54:47.168Z,21152.00
2022-11-21T11:55:47.085Z,23680.00
2022-11-21T11:56:47.368Z,23072.00
2022-11-21T11:57:47.091Z,28032.00
2022-11-21T11:58:47.063Z,24768.00
2022-11-21T11:59:47.106Z,16336.00
2022-11-21T12:00:47.001Z,19008.00
2022-11-21T12:01:47.069Z,10348.00
2022-11-21T12:02:47.173Z,12036.00
2022-11-21T12:03:47.179Z,8780.00
2022-11-21T12:04:47.108Z,8836.00
2022-11-21T12:05:47.053Z,10528.00
2022-11-21T12:08:39.636Z,11604.00
2022-11-21T12:08:47.952Z,11604.00
2022-11-21T12:09:46.897Z,11416.00
2022-11-21T12:10:46.908Z,11280.00
2022-11-21T12:11:46.989Z,11444.00
2022-11-21T12:12:46.889Z,11928.00
2022-11-21T12:13:47.944Z,13088.00
2022-11-21T12:14:47.044Z,13600.00
2022-11-21T12:15:47.161Z,13216.00
2022-11-21T12:16:47.096Z,13196.00
2022-11-21T12:17:47.122Z,12852.00
2022-11-21T12:18:47.118Z,12784.00
2022-11-21T12:19:47.128Z,14148.00
2022-11-21T12:20:46.791Z,13048.00
2022-11-21T12:21:46.787Z,12452.00
2022-11-21T12:22:47.134Z,11912.00
2022-11-21T12:23:47.258Z,12008.00
2022-11-21T12:24:48.116Z,12332.00
2022-11-21T12:25:47.374Z,13264.00
2022-11-21T12:26:47.161Z,15908.00
2022-11-21T12:27:47.091Z,14748.00
2022-11-21T12:28:47.156Z,14540.00
2022-11-21T12:29:47.142Z,13180.00
2022-11-21T12:30:46.687Z,13760.00
2022-11-21T12:31:47.151Z,18112.00
2022-11-21T12:32:47.079Z,14400.00
2022-11-21T12:33:46.957Z,13104.00
2022-11-21T12:34:47.105Z,12564.00
2022-11-21T12:35:47.171Z,12408.00
2022-11-21T12:36:47.090Z,11792.00
2022-11-21T12:37:47.167Z,10656.00
2022-11-21T12:38:47.017Z,9620.00
2022-11-21T12:39:48.024Z,8740.00